sensor_id;sensor_type;location;lat;lon;timestamp;pressure;altitude;pressure_sealevel;temperature;humidity
62152;BME280;48139;47.474;19.034;2023-06-26T03:37:21;100308.53;;;18.02;100.00
62152;BME280;48139;47.474;19.034;2023-06-26T03:40:25;100313.50;;;18.18;100.00
62152;BME280;48139;47.474;19.034;2023-06-26T03:43:28;100309.13;;;18.28;100.00
62152;BME280;48139;47.474;19.034;2023-06-26T03:46:31;100308.03;;;18.30;100.00
62152;BME280;48139;47.474;19.034;2023-06-26T03:49:33;100308.63;;;18.34;100.00
62152;BME280;48139;47.474;19.034;2023-06-26T03:52:37;100319.97;;;18.25;100.00
62152;BME280;48139;47.474;19.034;2023-06-26T03:55:39;100311.91;;;18.15;100.00
62152;BME280;48139;47.474;19.034;2023-06-26T03:58:42;100316.84;;;18.08;100.00
62152;BME280;48139;47.474;19.034;2023-06-26T04:01:45;100316.59;;;18.11;100.00
62152;BME280;48139;47.474;19.034;2023-06-26T04:04:49;100318.16;;;18.25;100.00
62152;BME280;48139;47.474;19.034;2023-06-26T04:07:52;100321.28;;;18.41;100.00
62152;BME280;48139;47.474;19.034;2023-06-26T04:10:55;100322.13;;;18.42;100.00
62152;BME280;48139;47.474;19.034;2023-06-26T04:14:00;100330.31;;;18.39;100.00
62152;BME280;48139;47.474;19.034;2023-06-26T04:17:03;100322.22;;;18.63;100.00
62152;BME280;48139;47.474;19.034;2023-06-26T04:20:06;100326.66;;;18.84;100.00
62152;BME280;48139;47.474;19.034;2023-06-26T04:23:09;100323.22;;;19.05;100.00
62152;BME280;48139;47.474;19.034;2023-06-26T04:26:12;100319.03;;;19.23;100.00
62152;BME280;48139;47.474;19.034;2023-06-26T04:29:17;100324.38;;;19.32;100.00
62152;BME280;48139;47.474;19.034;2023-06-26T04:32:20;100335.41;;;19.28;100.00
62152;BME280;48139;47.474;19.034;2023-06-26T04:35:22;100329.91;;;19.41;100.00
62152;BME280;48139;47.474;19.034;2023-06-26T04:38:25;100326.00;;;19.45;100.00
62152;BME280;48139;47.474;19.034;2023-06-26T04:41:28;100325.97;;;19.35;100.00
62152;BME280;48139;47.474;19.034;2023-06-26T04:44:30;100331.56;;;19.53;100.00
62152;BME280;48139;47.474;19.034;2023-06-26T04:47:33;100335.00;;;19.64;100.00
62152;BME280;48139;47.474;19.034;2023-06-26T04:50:36;100337.84;;;19.72;100.00
62152;BME280;48139;47.474;19.034;2023-06-26T04:53:39;100336.19;;;19.81;100.00
62152;BME280;48139;47.474;19.034;2023-06-26T04:56:41;100332.13;;;19.77;100.00
62152;BME280;48139;47.474;19.034;2023-06-26T04:59:44;100331.59;;;19.83;100.00
62152;BME280;48139;47.474;19.034;2023-06-26T05:02:46;100332.22;;;19.96;100.00
62152;BME280;48139;47.474;19.034;2023-06-26T05:05:49;100325.41;;;20.03;100.00
62152;BME280;48139;47.474;19.034;2023-06-26T05:08:52;100330.94;;;20.21;100.00
62152;BME280;48139;47.474;19.034;2023-06-26T05:11:55;100331.97;;;20.30;100.00
62152;BME280;48139;47.474;19.034;2023-06-26T05:14:57;100331.16;;;20.39;100.00
62152;BME280;48139;47.474;19.034;2023-06-26T05:18:00;100330.06;;;20.51;100.00
62152;BME280;48139;47.474;19.034;2023-06-26T05:21:03;100333.75;;;20.60;100.00
62152;BME280;48139;47.474;19.034;2023-06-26T05:24:06;100330.16;;;20.80;100.00
62152;BME280;48139;47.474;19.034;2023-06-26T05:27:09;100328.50;;;20.98;100.00
62152;BME280;48139;47.474;19.034;2023-06-26T05:30:13;100322.50;;;21.15;100.00
62152;BME280;48139;47.474;19.034;2023-06-26T05:33:17;100328.91;;;21.32;100.00
62152;BME280;48139;47.474;19.034;2023-06-26T05:36:22;100326.09;;;21.53;100.00
62152;BME280;48139;47.474;19.034;2023-06-26T05:39:26;100325.09;;;21.73;100.00
62152;BME280;48139;47.474;19.034;2023-06-26T05:42:29;100330.38;;;21.92;100.00
62152;BME280;48139;47.474;19.034;2023-06-26T05:45:32;100328.81;;;21.99;100.00
62152;BME280;48139;47.474;19.034;2023-06-26T05:48:35;100334.88;;;22.29;100.00
62152;BME280;48139;47.474;19.034;2023-06-26T05:51:38;100329.63;;;22.64;97.59
62152;BME280;48139;47.474;19.034;2023-06-26T05:54:41;100330.97;;;22.78;95.35
62152;BME280;48139;47.474;19.034;2023-06-26T05:57:44;100328.75;;;22.73;87.73
62152;BME280;48139;47.474;19.034;2023-06-26T06:00:48;100333.66;;;22.78;87.24
62152;BME280;48139;47.474;19.034;2023-06-26T06:03:50;100333.19;;;23.18;89.20
62152;BME280;48139;47.474;19.034;2023-06-26T06:06:56;100332.03;;;23.38;90.91
62152;BME280;48139;47.474;19.034;2023-06-26T06:09:59;100325.63;;;23.49;92.62
62152;BME280;48139;47.474;19.034;2023-06-26T06:13:02;100325.91;;;23.63;77.35
62152;BME280;48139;47.474;19.034;2023-06-26T06:16:05;100328.00;;;24.03;85.75
62152;BME280;48139;47.474;19.034;2023-06-26T06:19:07;100326.97;;;24.30;81.64
62152;BME280;48139;47.474;19.034;2023-06-26T06:22:13;100330.47;;;24.31;72.92
62152;BME280;48139;47.474;19.034;2023-06-26T06:25:16;100327.16;;;24.03;75.65
62152;BME280;48139;47.474;19.034;2023-06-26T06:28:19;100333.66;;;24.26;72.52
62152;BME280;48139;47.474;19.034;2023-06-26T06:31:21;100328.53;;;24.49;68.21
62152;BME280;48139;47.474;19.034;2023-06-26T06:34:24;100328.72;;;24.47;69.64
62152;BME280;48139;47.474;19.034;2023-06-26T06:37:26;100327.94;;;24.63;68.91
62152;BME280;48139;47.474;19.034;2023-06-26T06:40:30;100330.59;;;24.63;68.38
62152;BME280;48139;47.474;19.034;2023-06-26T06:43:33;100331.66;;;24.78;69.83
62152;BME280;48139;47.474;19.034;2023-06-26T06:46:35;100328.47;;;24.83;71.19
62152;BME280;48139;47.474;19.034;2023-06-26T06:49:38;100337.22;;;24.93;69.36
62152;BME280;48139;47.474;19.034;2023-06-26T06:52:42;100326.72;;;25.16;65.36
62152;BME280;48139;47.474;19.034;2023-06-26T06:55:44;100333.75;;;25.17;65.86
62152;BME280;48139;47.474;19.034;2023-06-26T06:58:47;100334.34;;;24.86;65.11
62152;BME280;48139;47.474;19.034;2023-06-26T07:01:50;100336.03;;;24.79;66.65
62152;BME280;48139;47.474;19.034;2023-06-26T07:04:53;100341.87;;;24.83;67.55
62152;BME280;48139;47.474;19.034;2023-06-26T07:07:55;100337.25;;;25.01;69.02
62152;BME280;48139;47.474;19.034;2023-06-26T07:10:59;100333.56;;;25.02;65.16
62152;BME280;48139;47.474;19.034;2023-06-26T07:14:02;100329.38;;;25.24;69.15
62152;BME280;48139;47.474;19.034;2023-06-26T07:17:05;100332.09;;;25.40;65.93
62152;BME280;48139;47.474;19.034;2023-06-26T07:20:08;100331.94;;;25.42;65.87
62152;BME280;48139;47.474;19.034;2023-06-26T07:23:12;100327.53;;;25.49;66.76
62152;BME280;48139;47.474;19.034;2023-06-26T07:26:15;100329.72;;;25.53;63.03
62152;BME280;48139;47.474;19.034;2023-06-26T07:29:18;100329.56;;;25.47;67.74
62152;BME280;48139;47.474;19.034;2023-06-26T07:32:20;100327.22;;;25.44;64.19
62152;BME280;48139;47.474;19.034;2023-06-26T07:35:23;100327.91;;;25.62;69.96
62152;BME280;48139;47.474;19.034;2023-06-26T07:38:27;100328.72;;;25.79;60.78
62152;BME280;48139;47.474;19.034;2023-06-26T07:46:17;100326.53;;;25.82;64.11
62152;BME280;48139;47.474;19.034;2023-06-26T07:54:28;100328.84;;;25.93;63.70
62152;BME280;48139;47.474;19.034;2023-06-26T07:57:37;100324.16;;;25.95;57.94
62152;BME280;48139;47.474;19.034;2023-06-26T08:00:44;100327.81;;;26.02;58.48
62152;BME280;48139;47.474;19.034;2023-06-26T08:03:52;100329.66;;;26.10;59.90
62152;BME280;48139;47.474;19.034;2023-06-26T08:07:00;100331.66;;;26.08;58.42
62152;BME280;48139;47.474;19.034;2023-06-26T08:10:09;100333.97;;;26.19;56.92
62152;BME280;48139;47.474;19.034;2023-06-26T08:13:16;100334.47;;;26.23;54.67
62152;BME280;48139;47.474;19.034;2023-06-26T08:16:19;100334.47;;;26.31;57.68
62152;BME280;48139;47.474;19.034;2023-06-26T08:19:21;100328.59;;;26.19;56.45
62152;BME280;48139;47.474;19.034;2023-06-26T08:22:29;100327.31;;;25.99;57.74
62152;BME280;48139;47.474;19.034;2023-06-26T08:25:31;100329.75;;;26.33;56.25
62152;BME280;48139;47.474;19.034;2023-06-26T08:28:34;100329.53;;;26.42;57.25
62152;BME280;48139;47.474;19.034;2023-06-26T08:31:37;100335.09;;;26.41;56.71
62152;BME280;48139;47.474;19.034;2023-06-26T08:34:40;100332.06;;;26.75;57.84
62152;BME280;48139;47.474;19.034;2023-06-26T08:37:44;100328.34;;;27.07;56.11
62152;BME280;48139;47.474;19.034;2023-06-26T08:40:47;100323.09;;;27.13;54.28
62152;BME280;48139;47.474;19.034;2023-06-26T08:43:50;100324.22;;;27.19;52.92
62152;BME280;48139;47.474;19.034;2023-06-26T08:46:55;100323.34;;;27.04;53.19
62152;BME280;48139;47.474;19.034;2023-06-26T08:50:07;100319.81;;;27.03;52.41
62152;BME280;48139;47.474;19.034;2023-06-26T08:56:37;100324.09;;;26.59;56.02
62152;BME280;48139;47.474;19.034;2023-06-26T08:59:41;100323.00;;;26.45;54.84
62152;BME280;48139;47.474;19.034;2023-06-26T09:02:44;100327.47;;;26.61;54.68
62152;BME280;48139;47.474;19.034;2023-06-26T09:05:47;100329.19;;;26.45;64.12
62152;BME280;48139;47.474;19.034;2023-06-26T09:08:50;100315.59;;;26.47;60.55
62152;BME280;48139;47.474;19.034;2023-06-26T09:11:53;100324.69;;;26.38;62.50
62152;BME280;48139;47.474;19.034;2023-06-26T09:14:58;100314.69;;;26.24;59.24
62152;BME280;48139;47.474;19.034;2023-06-26T09:18:04;100322.06;;;26.22;59.43
62152;BME280;48139;47.474;19.034;2023-06-26T09:21:08;100318.09;;;26.01;62.89
62152;BME280;48139;47.474;19.034;2023-06-26T09:24:12;100322.69;;;25.68;60.00
62152;BME280;48139;47.474;19.034;2023-06-26T09:27:16;100320.47;;;25.88;58.60
62152;BME280;48139;47.474;19.034;2023-06-26T09:30:19;100324.16;;;25.87;62.46
62152;BME280;48139;47.474;19.034;2023-06-26T09:33:22;100308.91;;;25.88;55.09
62152;BME280;48139;47.474;19.034;2023-06-26T09:36:27;100311.47;;;26.20;53.80
62152;BME280;48139;47.474;19.034;2023-06-26T09:39:30;100313.34;;;26.59;53.52
62152;BME280;48139;47.474;19.034;2023-06-26T09:42:33;100313.38;;;26.81;53.78
62152;BME280;48139;47.474;19.034;2023-06-26T09:45:39;100302.00;;;27.02;50.53
62152;BME280;48139;47.474;19.034;2023-06-26T09:48:42;100300.50;;;27.22;52.45
62152;BME280;48139;47.474;19.034;2023-06-26T09:51:44;100307.59;;;27.61;56.04
62152;BME280;48139;47.474;19.034;2023-06-26T09:54:47;100304.53;;;27.64;57.16
62152;BME280;48139;47.474;19.034;2023-06-26T09:57:50;100297.56;;;27.69;55.45
62152;BME280;48139;47.474;19.034;2023-06-26T10:00:53;100297.03;;;27.89;50.96
62152;BME280;48139;47.474;19.034;2023-06-26T10:03:57;100301.09;;;27.70;52.21
62152;BME280;48139;47.474;19.034;2023-06-26T10:07:02;100293.12;;;27.77;51.21
62152;BME280;48139;47.474;19.034;2023-06-26T10:10:08;100295.53;;;27.49;52.11
62152;BME280;48139;47.474;19.034;2023-06-26T10:13:18;100289.62;;;27.16;52.83
62152;BME280;48139;47.474;19.034;2023-06-26T10:16:26;100297.22;;;26.89;60.02
62152;BME280;48139;47.474;19.034;2023-06-26T10:19:33;100283.66;;;27.43;60.90
62152;BME280;48139;47.474;19.034;2023-06-26T10:22:46;100281.78;;;27.81;56.40
62152;BME280;48139;47.474;19.034;2023-06-26T10:25:49;100283.75;;;27.73;52.62
62152;BME280;48139;47.474;19.034;2023-06-26T10:28:54;100277.25;;;27.96;51.24
62152;BME280;48139;47.474;19.034;2023-06-26T10:32:00;100276.69;;;28.01;50.90
62152;BME280;48139;47.474;19.034;2023-06-26T10:35:06;100270.09;;;28.18;50.81
62152;BME280;48139;47.474;19.034;2023-06-26T10:38:10;100277.06;;;27.98;50.70
62152;BME280;48139;47.474;19.034;2023-06-26T10:41:13;100278.06;;;27.82;49.25
62152;BME280;48139;47.474;19.034;2023-06-26T10:44:16;100280.59;;;27.54;51.62
62152;BME280;48139;47.474;19.034;2023-06-26T10:47:32;100271.66;;;27.31;52.64
62152;BME280;48139;47.474;19.034;2023-06-26T10:50:35;100270.91;;;26.77;61.95
62152;BME280;48139;47.474;19.034;2023-06-26T10:53:38;100273.66;;;26.38;61.92
62152;BME280;48139;47.474;19.034;2023-06-26T10:59:47;100272.50;;;26.32;59.51
62152;BME280;48139;47.474;19.034;2023-06-26T11:02:50;100277.44;;;26.12;58.49
62152;BME280;48139;47.474;19.034;2023-06-26T11:06:09;100274.66;;;25.98;59.41
62152;BME280;48139;47.474;19.034;2023-06-26T11:09:18;100273.81;;;25.97;61.33
62152;BME280;48139;47.474;19.034;2023-06-26T11:12:43;100263.50;;;26.17;58.67
62152;BME280;48139;47.474;19.034;2023-06-26T11:15:46;100264.72;;;26.99;57.41
62152;BME280;48139;47.474;19.034;2023-06-26T11:18:49;100269.16;;;27.52;53.43
62152;BME280;48139;47.474;19.034;2023-06-26T11:21:52;100258.22;;;27.54;53.24
62152;BME280;48139;47.474;19.034;2023-06-26T11:24:59;100262.81;;;27.45;55.90
62152;BME280;48139;47.474;19.034;2023-06-26T11:28:05;100262.19;;;27.58;49.77
62152;BME280;48139;47.474;19.034;2023-06-26T11:31:26;100256.63;;;27.22;53.67
62152;BME280;48139;47.474;19.034;2023-06-26T11:34:30;100258.31;;;27.23;52.33
62152;BME280;48139;47.474;19.034;2023-06-26T11:37:33;100259.72;;;26.88;55.21
62152;BME280;48139;47.474;19.034;2023-06-26T11:40:36;100257.34;;;26.70;56.55
62152;BME280;48139;47.474;19.034;2023-06-26T11:43:40;100254.37;;;26.65;53.89
62152;BME280;48139;47.474;19.034;2023-06-26T11:46:42;100252.84;;;26.40;53.64
62152;BME280;48139;47.474;19.034;2023-06-26T11:49:47;100252.44;;;26.51;54.83
62152;BME280;48139;47.474;19.034;2023-06-26T11:52:54;100258.38;;;26.38;55.23
62152;BME280;48139;47.474;19.034;2023-06-26T11:55:58;100253.50;;;26.42;57.21
62152;BME280;48139;47.474;19.034;2023-06-26T11:59:04;100253.63;;;26.48;58.36
62152;BME280;48139;47.474;19.034;2023-06-26T12:02:10;100238.97;;;26.20;56.23
62152;BME280;48139;47.474;19.034;2023-06-26T12:05:16;100240.31;;;26.55;57.01
62152;BME280;48139;47.474;19.034;2023-06-26T12:08:19;100238.38;;;26.95;53.05
62152;BME280;48139;47.474;19.034;2023-06-26T12:11:23;100239.16;;;27.55;49.92
62152;BME280;48139;47.474;19.034;2023-06-26T12:14:27;100237.44;;;27.92;49.19
62152;BME280;48139;47.474;19.034;2023-06-26T12:17:33;100232.53;;;28.31;48.23
62152;BME280;48139;47.474;19.034;2023-06-26T12:20:39;100234.50;;;28.59;49.50
62152;BME280;48139;47.474;19.034;2023-06-26T12:23:43;100237.91;;;28.46;50.19
62152;BME280;48139;47.474;19.034;2023-06-26T12:26:46;100236.87;;;28.47;48.62
62152;BME280;48139;47.474;19.034;2023-06-26T12:29:53;100230.25;;;28.28;48.37
62152;BME280;48139;47.474;19.034;2023-06-26T12:32:56;100229.12;;;28.08;52.48
62152;BME280;48139;47.474;19.034;2023-06-26T12:35:59;100228.62;;;27.54;50.53
62152;BME280;48139;47.474;19.034;2023-06-26T12:39:02;100230.66;;;27.14;51.66
62152;BME280;48139;47.474;19.034;2023-06-26T12:42:05;100227.72;;;27.01;52.92
62152;BME280;48139;47.474;19.034;2023-06-26T12:45:13;100228.84;;;27.07;53.25
62152;BME280;48139;47.474;19.034;2023-06-26T12:48:43;100225.94;;;26.94;50.43
62152;BME280;48139;47.474;19.034;2023-06-26T12:51:48;100218.59;;;27.25;50.87
62152;BME280;48139;47.474;19.034;2023-06-26T12:54:51;100223.13;;;27.62;49.53
62152;BME280;48139;47.474;19.034;2023-06-26T12:57:54;100221.84;;;27.73;49.45
62152;BME280;48139;47.474;19.034;2023-06-26T13:00:56;100211.88;;;28.02;49.79
62152;BME280;48139;47.474;19.034;2023-06-26T13:04:00;100216.59;;;28.51;49.73
62152;BME280;48139;47.474;19.034;2023-06-26T13:07:03;100212.53;;;28.76;49.47
62152;BME280;48139;47.474;19.034;2023-06-26T13:10:06;100218.06;;;28.18;48.97
62152;BME280;48139;47.474;19.034;2023-06-26T13:13:10;100213.75;;;28.17;51.10
62152;BME280;48139;47.474;19.034;2023-06-26T13:16:13;100217.78;;;28.13;49.63
62152;BME280;48139;47.474;19.034;2023-06-26T13:19:16;100211.03;;;27.87;48.81
62152;BME280;48139;47.474;19.034;2023-06-26T13:22:18;100216.56;;;27.79;50.34
62152;BME280;48139;47.474;19.034;2023-06-26T13:25:22;100213.75;;;27.58;50.91
62152;BME280;48139;47.474;19.034;2023-06-26T13:28:24;100199.06;;;27.90;48.48
62152;BME280;48139;47.474;19.034;2023-06-26T13:31:27;100199.06;;;27.90;48.20
62152;BME280;48139;47.474;19.034;2023-06-26T13:34:30;100205.19;;;27.98;50.27
62152;BME280;48139;47.474;19.034;2023-06-26T13:37:33;100202.28;;;28.00;52.62
62152;BME280;48139;47.474;19.034;2023-06-26T13:40:36;100201.59;;;27.77;51.85
62152;BME280;48139;47.474;19.034;2023-06-26T13:43:39;100188.63;;;27.65;52.39
62152;BME280;48139;47.474;19.034;2023-06-26T13:46:43;100193.47;;;27.33;52.01
62152;BME280;48139;47.474;19.034;2023-06-26T13:49:46;100190.16;;;27.45;52.28
62152;BME280;48139;47.474;19.034;2023-06-26T13:52:49;100189.19;;;27.09;51.00
62152;BME280;48139;47.474;19.034;2023-06-26T13:55:51;100193.16;;;26.98;52.44
62152;BME280;48139;47.474;19.034;2023-06-26T13:58:53;100187.75;;;26.75;52.65
62152;BME280;48139;47.474;19.034;2023-06-26T14:01:57;100186.91;;;26.75;55.26
62152;BME280;48139;47.474;19.034;2023-06-26T14:04:59;100180.59;;;26.68;54.65
62152;BME280;48139;47.474;19.034;2023-06-26T14:08:04;100184.34;;;26.81;56.29
62152;BME280;48139;47.474;19.034;2023-06-26T14:11:07;100184.66;;;27.09;56.45
62152;BME280;48139;47.474;19.034;2023-06-26T14:14:09;100184.62;;;26.86;52.63
62152;BME280;48139;47.474;19.034;2023-06-26T14:17:12;100186.37;;;27.02;54.69
62152;BME280;48139;47.474;19.034;2023-06-26T14:20:18;100182.50;;;26.82;52.96
62152;BME280;48139;47.474;19.034;2023-06-26T14:23:23;100187.22;;;26.80;53.10
62152;BME280;48139;47.474;19.034;2023-06-26T14:26:25;100184.47;;;26.88;52.42
62152;BME280;48139;47.474;19.034;2023-06-26T14:29:29;100182.91;;;27.16;51.55
62152;BME280;48139;47.474;19.034;2023-06-26T14:32:32;100181.22;;;27.15;52.17
62152;BME280;48139;47.474;19.034;2023-06-26T14:35:34;100180.28;;;27.08;51.56
62152;BME280;48139;47.474;19.034;2023-06-26T14:38:37;100185.09;;;27.13;53.57
62152;BME280;48139;47.474;19.034;2023-06-26T14:41:41;100178.50;;;27.01;55.06
62152;BME280;48139;47.474;19.034;2023-06-26T14:44:44;100183.41;;;26.97;53.15
62152;BME280;48139;47.474;19.034;2023-06-26T14:47:50;100181.62;;;26.89;53.60
62152;BME280;48139;47.474;19.034;2023-06-26T14:50:52;100177.41;;;26.87;52.48
62152;BME280;48139;47.474;19.034;2023-06-26T14:53:55;100171.28;;;26.78;51.88
62152;BME280;48139;47.474;19.034;2023-06-26T14:56:58;100169.78;;;26.76;52.56
62152;BME280;48139;47.474;19.034;2023-06-26T15:00:01;100175.87;;;26.70;52.55
62152;BME280;48139;47.474;19.034;2023-06-26T15:03:03;100175.09;;;26.61;53.85
62152;BME280;48139;47.474;19.034;2023-06-26T15:06:06;100173.91;;;26.64;58.69
62152;BME280;48139;47.474;19.034;2023-06-26T15:09:09;100174.31;;;26.75;54.01
62152;BME280;48139;47.474;19.034;2023-06-26T15:12:11;100162.94;;;26.88;55.50
62152;BME280;48139;47.474;19.034;2023-06-26T15:15:14;100166.28;;;26.98;52.58
